Time;durP1;ratioP1;P1;durP2;ratioP2;P2;SDS_P1;SDS_P2;PMS_P1;PMS_P2;Temp;Humidity;BMP_temperature;BMP_pressure;BME280_temperature;BME280_humidity;BME280_pressure;Samples;Min_cycle;Max_cycle;Signal;HPM_P1;HPM_P2
2023/09/01 00:00:41;;;;;;;;;;;;;;;22.90;47.36;99689.31;3166514;28;19924;-72
2023/09/01 00:02:13;;;;;;;;;;;;;;;22.90;47.37;99686.69;3169810;28;19927;-71
2023/09/01 00:03:43;;;;;;;;;;;;;;;22.91;47.34;99688.34;3170035;28;19978;-72
2023/09/01 00:05:15;;;;;;;;;;;;;;;22.97;46.97;99691.41;3170218;28;20321;-71
2023/09/01 00:06:47;;;;;;;;;;;;;;;22.99;47.02;99686.78;3158836;28;19924;-71
2023/09/01 00:08:19;;;;;;;;;;;;;;;22.99;46.84;99686.78;3169042;28;19927;-70
2023/09/01 00:09:51;;;;;;;;;;;;;;;22.99;46.93;99682.31;3168286;28;19928;-70
2023/09/01 00:11:21;;;;;;;;;;;;;;;23.02;46.83;99687.31;3161266;28;19928;-70
2023/09/01 00:12:53;;;;;;;;;;;;;;;23.03;46.84;99688.97;3164133;28;20529;-70
2023/09/01 00:14:23;;;;;;;;;;;;;;;23.04;46.80;99684.50;3165234;28;19927;-70
2023/09/01 00:15:55;;;;;;;;;;;;;;;23.02;46.79;99679.34;3169756;28;19928;-70
2023/09/01 00:17:25;;;;;;;;;;;;;;;22.99;46.78;99684.13;3169897;28;19924;-71
2023/09/01 00:18:57;;;;;;;;;;;;;;;22.99;47.08;99686.78;3170127;28;19930;-70
2023/09/01 00:20:27;;;;;;;;;;;;;;;23.00;46.88;99693.75;3170387;28;19924;-70
2023/09/01 00:21:59;;;;;;;;;;;;;;;23.00;46.96;99693.75;3169715;28;19954;-69
2023/09/01 00:23:31;;;;;;;;;;;;;;;22.99;46.98;99687.63;3169852;28;19951;-71
2023/09/01 00:25:04;;;;;;;;;;;;;;;23.02;46.74;99687.31;3165635;28;20376;-71
2023/09/01 00:26:34;;;;;;;;;;;;;;;23.05;46.72;99688.84;3163997;28;20019;-71
2023/09/01 00:28:06;;;;;;;;;;;;;;;23.06;46.77;99682.53;3169970;28;19931;-71
2023/09/01 00:29:37;;;;;;;;;;;;;;;23.07;46.60;99692.16;3172167;28;19931;-71
2023/09/01 00:31:08;;;;;;;;;;;;;;;23.09;46.77;99687.53;3172407;28;19935;-71
2023/09/01 00:32:39;;;;;;;;;;;;;;;23.10;46.63;99691.84;3163698;28;19928;-74
2023/09/01 00:34:10;;;;;;;;;;;;;;;23.11;46.74;99696.19;3170658;28;20324;-72
2023/09/01 00:35:41;;;;;;;;;;;;;;;23.11;46.56;99693.53;3172173;28;19931;-69
2023/09/01 00:37:12;;;;;;;;;;;;;;;23.14;46.63;99698.53;3171685;28;19955;-72
2023/09/01 00:38:45;;;;;;;;;;;;;;;23.14;46.55;99701.19;3172165;28;19934;-71
2023/09/01 00:40:16;;;;;;;;;;;;;;;23.13;46.66;99705.69;3167271;28;20289;-68
2023/09/01 00:41:47;;;;;;;;;;;;;;;23.14;46.71;99704.69;3169489;28;19930;-69
2023/09/01 00:43:18;;;;;;;;;;;;;;;23.14;46.57;99702.03;3172209;28;20422;-69
2023/09/01 00:44:49;;;;;;;;;;;;;;;23.16;46.47;99691.25;3171767;28;19945;-69
2023/09/01 00:46:20;;;;;;;;;;;;;;;23.15;46.75;99698.38;3172436;28;19928;-70
2023/09/01 00:47:52;;;;;;;;;;;;;;;23.13;46.93;99699.50;3168856;28;20416;-67
2023/09/01 00:49:22;;;;;;;;;;;;;;;23.11;46.84;99696.19;3162162;28;19935;-68
2023/09/01 00:50:54;;;;;;;;;;;;;;;23.12;47.08;99690.72;3171757;28;19927;-68
2023/09/01 00:52:25;;;;;;;;;;;;;;;23.13;46.84;99691.53;3171839;28;19924;-68
2023/09/01 00:53:58;;;;;;;;;;;;;;;23.13;47.10;99688.88;3168041;28;19928;-68
2023/09/01 00:55:29;;;;;;;;;;;;;;;23.15;46.89;99697.53;3147116;28;19936;-69
2023/09/01 00:57:01;;;;;;;;;;;;;;;23.16;46.91;99700.06;3160334;28;19924;-68
2023/09/01 00:58:32;;;;;;;;;;;;;;;23.17;47.02;99700.91;3166370;28;19952;-68
2023/09/01 01:00:05;;;;;;;;;;;;;;;23.16;47.12;99701.88;3169752;28;19927;-68
2023/09/01 01:01:37;;;;;;;;;;;;;;;23.16;46.98;99704.53;3168837;28;20491;-68
2023/09/01 01:03:09;;;;;;;;;;;;;;;23.15;47.00;99703.69;3169610;28;19927;-68
2023/09/01 01:04:40;;;;;;;;;;;;;;;23.13;47.44;99707.47;3162900;28;19928;-68
2023/09/01 01:06:16;;;;;;;;;;;;;;;23.12;47.33;99713.78;3162710;28;19928;-68
2023/09/01 01:07:51;;;;;;;;;;;;;;;23.13;47.16;99716.31;3166452;28;20047;-68
2023/09/01 01:09:29;;;;;;;;;;;;;;;23.14;47.17;99714.47;3167169;28;19928;-68
2023/09/01 01:11:01;;;;;;;;;;;;;;;23.11;47.38;99718.28;3169095;28;19939;-69
2023/09/01 01:12:38;;;;;;;;;;;;;;;23.11;47.67;99714.78;3165723;28;19928;-69
2023/09/01 01:14:14;;;;;;;;;;;;;;;23.09;47.42;99719.41;3165742;28;19962;-69
2023/09/01 01:15:46;;;;;;;;;;;;;;;23.06;47.61;99723.19;3171833;28;19923;-69
2023/09/01 01:17:18;;;;;;;;;;;;;;;23.04;47.49;99724.31;3172091;28;19924;-69
2023/09/01 01:18:53;;;;;;;;;;;;;;;23.01;47.52;99727.28;3171320;28;20305;-70
2023/09/01 01:20:28;;;;;;;;;;;;;;;22.99;47.83;99729.28;3171690;28;20332;-69
2023/09/01 01:22:00;;;;;;;;;;;;;;;22.96;47.73;99725.09;3171910;28;20531;-70
2023/09/01 01:23:32;;;;;;;;;;;;;;;22.96;47.57;99725.09;3167031;28;20369;-69
2023/09/01 01:25:05;;;;;;;;;;;;;;;22.90;47.69;99729.16;3171889;28;20289;-70
2023/09/01 01:26:37;;;;;;;;;;;;;;;22.90;47.70;99731.81;3166079;28;19939;-70
2023/09/01 01:28:08;;;;;;;;;;;;;;;22.90;47.80;99726.50;3170938;28;19984;-71
2023/09/01 01:29:40;;;;;;;;;;;;;;;22.90;47.71;99725.66;3171934;28;19934;-70
2023/09/01 01:31:10;;;;;;;;;;;;;;;22.89;47.66;99726.63;3158817;28;19928;-68
2023/09/01 01:32:42;;;;;;;;;;;;;;;22.86;47.79;99725.13;3170765;28;19924;-68
2023/09/01 01:34:17;;;;;;;;;;;;;;;22.82;47.71;99721.09;3171118;28;20443;-68
2023/09/01 01:35:53;;;;;;;;;;;;;;;22.81;47.84;99723.91;3171603;28;19924;-69
2023/09/01 01:37:30;;;;;;;;;;;;;;;22.74;47.96;99728.97;3169776;28;20353;-68
2023/09/01 01:39:05;;;;;;;;;;;;;;;22.66;48.20;99718.28;3169378;28;20320;-69
2023/09/01 01:40:37;;;;;;;;;;;;;;;22.55;48.20;99716.66;3171451;28;19967;-68
2023/09/01 01:42:11;;;;;;;;;;;;;;;22.47;48.61;99719.22;3169054;28;20372;-68
2023/09/01 01:43:42;;;;;;;;;;;;;;;22.38;48.99;99718.28;3171267;28;19924;-68
2023/09/01 01:45:16;;;;;;;;;;;;;;;22.30;49.20;99712.03;3171333;28;20009;-68
2023/09/01 01:46:47;;;;;;;;;;;;;;;22.25;49.19;99717.78;3171298;28;20354;-70
2023/09/01 01:48:18;;;;;;;;;;;;;;;22.19;49.21;99713.06;3171879;28;19923;-71
2023/09/01 01:49:49;;;;;;;;;;;;;;;22.14;49.21;99713.47;3171333;28;19923;-70
2023/09/01 01:51:20;;;;;;;;;;;;;;;22.11;49.45;99707.63;3171215;28;19950;-71
2023/09/01 01:52:51;;;;;;;;;;;;;;;22.07;49.38;99706.25;3166467;28;19927;-71
2023/09/01 01:54:25;;;;;;;;;;;;;;;22.06;49.62;99708.03;3170191;28;19928;-70
2023/09/01 01:55:55;;;;;;;;;;;;;;;22.03;49.50;99703.88;3159533;28;20401;-70
2023/09/01 01:57:27;;;;;;;;;;;;;;;21.96;49.76;99702.78;3160851;28;20062;-70
2023/09/01 01:58:57;;;;;;;;;;;;;;;21.91;49.89;99701.53;3164480;28;19931;-70
2023/09/01 02:00:29;;;;;;;;;;;;;;;21.86;49.96;99712.59;3168258;28;19927;-70
2023/09/01 02:01:59;;;;;;;;;;;;;;;21.80;49.95;99714.00;3171416;28;19927;-70
2023/09/01 02:03:31;;;;;;;;;;;;;;;21.75;50.13;99718.88;3159204;28;19924;-69
2023/09/01 02:05:06;;;;;;;;;;;;;;;21.72;50.22;99719.16;3170137;28;19988;-70
2023/09/01 02:06:37;;;;;;;;;;;;;;;21.72;50.09;99721.81;3169054;28;20308;-70
2023/09/01 02:08:09;;;;;;;;;;;;;;;21.73;50.02;99720.84;3168901;28;19927;-70
2023/09/01 02:09:41;;;;;;;;;;;;;;;21.72;50.09;99719.16;3171063;28;19928;-70
2023/09/01 02:11:13;;;;;;;;;;;;;;;21.67;50.41;99725.88;3166573;28;20344;-70
2023/09/01 02:12:43;;;;;;;;;;;;;;;21.62;50.31;99715.69;3165188;28;20361;-70
2023/09/01 02:14:15;;;;;;;;;;;;;;;21.59;50.33;99713.31;3165543;28;19924;-70
2023/09/01 02:15:51;;;;;;;;;;;;;;;21.60;50.25;99719.50;3171166;28;19924;-71
2023/09/01 02:17:23;;;;;;;;;;;;;;;21.58;50.12;99720.44;3171066;28;20431;-70
2023/09/01 02:18:54;;;;;;;;;;;;;;;21.62;50.02;99721.00;3171062;28;19934;-70
2023/09/01 02:20:26;;;;;;;;;;;;;;;21.66;49.96;99718.91;3171236;28;19924;-70
2023/09/01 02:21:58;;;;;;;;;;;;;;;21.67;49.91;99726.72;3166461;28;19930;-70
2023/09/01 02:23:28;;;;;;;;;;;;;;;21.65;50.08;99718.09;3171384;28;19938;-69
2023/09/01 02:25:08;;;;;;;;;;;;;;;21.67;49.94;99717.94;3165897;28;20324;-68
2023/09/01 02:26:38;;;;;;;;;;;;;;;21.67;49.79;99710.81;3164761;28;20417;-70
2023/09/01 02:28:10;;;;;;;;;;;;;;;21.61;49.82;99703.44;3171191;28;19928;-69
2023/09/01 02:29:40;;;;;;;;;;;;;;;21.60;49.97;99708.88;3170592;28;20281;-68
2023/09/01 02:31:13;;;;;;;;;;;;;;;21.56;50.08;99708.31;3171152;28;19995;-68
2023/09/01 02:32:43;;;;;;;;;;;;;;;21.49;50.18;99704.56;3171078;28;19932;-68
2023/09/01 02:34:15;;;;;;;;;;;;;;;21.43;50.35;99703.31;3159714;28;19924;-69
2023/09/01 02:35:48;;;;;;;;;;;;;;;21.36;50.63;99702.22;3167297;28;19923;-69
2023/09/01 02:37:20;;;;;;;;;;;;;;;21.30;50.91;99697.47;3168107;28;19931;-69
2023/09/01 02:38:51;;;;;;;;;;;;;;;21.25;50.94;99703.16;3170864;28;20977;-68
2023/09/01 02:40:24;;;;;;;;;;;;;;;21.22;51.26;99695.50;3170574;28;19928;-68
2023/09/01 02:41:55;;;;;;;;;;;;;;;21.19;51.29;99706.38;3168193;28;19931;-68
2023/09/01 02:43:26;;;;;;;;;;;;;;;21.16;51.42;99696.06;3170529;28;19924;-68
2023/09/01 02:44:58;;;;;;;;;;;;;;;21.14;51.45;99705.94;3170457;28;19943;-68
2023/09/01 02:46:28;;;;;;;;;;;;;;;21.10;51.66;99705.41;3171107;28;19934;-68
2023/09/01 02:48:00;;;;;;;;;;;;;;;21.07;51.68;99703.03;3170931;28;19923;-68
2023/09/01 02:49:31;;;;;;;;;;;;;;;21.04;51.54;99702.47;3170769;28;19923;-68
2023/09/01 02:51:04;;;;;;;;;;;;;;;21.03;51.58;99701.63;3166064;28;19988;-68
2023/09/01 02:52:35;;;;;;;;;;;;;;;21.04;51.53;99707.78;3170392;28;19967;-69
2023/09/01 02:54:07;;;;;;;;;;;;;;;21.03;51.52;99701.63;3170049;28;19942;-69
2023/09/01 02:55:38;;;;;;;;;;;;;;;21.03;51.64;99711.38;3159589;28;19935;-69
2023/09/01 02:57:10;;;;;;;;;;;;;;;20.99;51.77;99708.16;3158813;28;20011;-69
2023/09/01 02:58:41;;;;;;;;;;;;;;;20.98;51.70;99719.75;3170552;28;19996;-69
2023/09/01 03:00:18;;;;;;;;;;;;;;;20.94;51.78;99709.56;3170531;28;19923;-69
2023/09/01 03:01:48;;;;;;;;;;;;;;;20.92;51.97;99708.88;3168717;28;19928;-69
2023/09/01 03:03:20;;;;;;;;;;;;;;;20.91;51.95;99710.66;3170730;28;19923;-69
2023/09/01 03:04:52;;;;;;;;;;;;;;;20.90;51.72;99706.34;3169375;28;19928;-70
2023/09/01 03:06:23;;;;;;;;;;;;;;;20.89;51.91;99715.28;3167380;28;20409;-68
2023/09/01 03:07:54;;;;;;;;;;;;;;;20.86;51.95;99710.25;3170606;28;19940;-67
2023/09/01 03:09:26;;;;;;;;;;;;;;;20.84;52.04;99710.38;3170421;28;19935;-68
2023/09/01 03:10:58;;;;;;;;;;;;;;;20.81;52.18;99707.19;3164643;28;19924;-68
2023/09/01 03:12:29;;;;;;;;;;;;;;;20.80;52.20;99710.81;3164095;28;19978;-68
2023/09/01 03:14:00;;;;;;;;;;;;;;;20.77;52.28;99708.44;3164335;28;20385;-68
2023/09/01 03:15:32;;;;;;;;;;;;;;;20.74;52.34;99714.00;3170833;28;19923;-68
2023/09/01 03:17:04;;;;;;;;;;;;;;;20.67;52.64;99701.31;3169889;28;19973;-68
2023/09/01 03:18:36;;;;;;;;;;;;;;;20.66;52.66;99712.03;3170397;28;19924;-68
2023/09/01 03:20:10;;;;;;;;;;;;;;;20.64;52.55;99706.84;3166563;28;20324;-68
2023/09/01 03:21:41;;;;;;;;;;;;;;;20.62;52.57;99711.47;3162059;28;19924;-68
2023/09/01 03:23:12;;;;;;;;;;;;;;;20.63;52.49;99710.47;3170369;28;19923;-68
2023/09/01 03:24:43;;;;;;;;;;;;;;;20.64;52.44;99711.31;3170424;28;19928;-69
2023/09/01 03:26:16;;;;;;;;;;;;;;;20.63;52.39;99710.47;3166035;28;19943;-68
2023/09/01 03:27:47;;;;;;;;;;;;;;;20.66;52.20;99717.31;3170003;28;20308;-69
2023/09/01 03:29:18;;;;;;;;;;;;;;;20.63;52.43;99717.59;3170626;28;19923;-69
2023/09/01 03:30:49;;;;;;;;;;;;;;;20.59;52.59;99708.25;3169775;28;20336;-69
2023/09/01 03:32:20;;;;;;;;;;;;;;;20.55;52.69;99712.13;3170536;28;19923;-68
2023/09/01 03:33:51;;;;;;;;;;;;;;;20.50;52.81;99715.16;3169919;28;19932;-69
2023/09/01 03:35:22;;;;;;;;;;;;;;;20.45;52.99;99712.09;3164583;28;20411;-69
2023/09/01 03:36:53;;;;;;;;;;;;;;;20.43;53.29;99714.84;3170175;28;20063;-69
2023/09/01 03:38:25;;;;;;;;;;;;;;;20.41;53.17;99710.69;3170656;28;20409;-69
2023/09/01 03:39:55;;;;;;;;;;;;;;;20.37;53.35;99706.63;3169959;28;19938;-68
2023/09/01 03:41:28;;;;;;;;;;;;;;;20.34;53.38;99699.78;3167822;28;20384;-67
2023/09/01 03:43:00;;;;;;;;;;;;;;;20.33;53.62;99702.56;3170169;28;20383;-66
2023/09/01 03:44:30;;;;;;;;;;;;;;;20.32;53.72;99706.19;3169687;28;19931;-65
2023/09/01 03:46:02;;;;;;;;;;;;;;;20.30;53.73;99702.84;3170449;28;19926;-65
2023/09/01 03:47:33;;;;;;;;;;;;;;;20.28;53.61;99707.44;3164157;28;20038;-65
2023/09/01 03:49:04;;;;;;;;;;;;;;;20.26;53.71;99704.06;3166729;28;20404;-65
2023/09/01 03:50:35;;;;;;;;;;;;;;;20.26;53.86;99701.41;3145756;28;19932;-65
2023/09/01 03:52:07;;;;;;;;;;;;;;;20.27;53.87;99703.13;3169312;28;19932;-66
2023/09/01 03:53:37;;;;;;;;;;;;;;;20.26;53.80;99710.22;3170081;28;19927;-66
2023/09/01 03:55:09;;;;;;;;;;;;;;;20.28;53.90;99704.78;3169138;28;19934;-74
2023/09/01 03:56:41;;;;;;;;;;;;;;;20.32;53.53;99706.19;3159969;28;20370;-72
2023/09/01 03:58:12;;;;;;;;;;;;;;;20.36;53.34;99707.59;3160843;28;19965;-70
2023/09/01 03:59:44;;;;;;;;;;;;;;;20.41;53.10;99708.03;3168412;28;19939;-70
2023/09/01 04:01:15;;;;;;;;;;;;;;;20.43;53.04;99706.91;3152620;28;20062;-71
2023/09/01 04:02:46;;;;;;;;;;;;;;;20.48;52.85;99709.16;3163330;28;19923;-71
2023/09/01 04:04:18;;;;;;;;;;;;;;;20.50;52.68;99709.88;3169859;28;19928;-71
2023/09/01 04:05:49;;;;;;;;;;;;;;;20.53;52.73;99714.06;3172753;28;19935;-72
2023/09/01 04:07:21;;;;;;;;;;;;;;;20.53;52.61;99714.06;3172719;28;20419;-66
2023/09/01 04:08:52;;;;;;;;;;;;;;;20.52;52.88;99715.00;3172359;28;19931;-68
2023/09/01 04:10:23;;;;;;;;;;;;;;;20.51;52.91;99722.13;3172521;28;19924;-68
2023/09/01 04:11:56;;;;;;;;;;;;;;;20.52;52.72;99718.53;3166839;28;19935;-66
2023/09/01 04:13:27;;;;;;;;;;;;;;;20.54;52.35;99721.88;3168924;28;20415;-68
2023/09/01 04:14:58;;;;;;;;;;;;;;;20.59;52.45;99726.78;3169875;28;19938;-67
2023/09/01 04:16:29;;;;;;;;;;;;;;;20.59;52.36;99718.84;3161096;28;19972;-68
2023/09/01 04:18:02;;;;;;;;;;;;;;;20.62;52.44;99730.00;3160511;28;19924;-69
2023/09/01 04:19:33;;;;;;;;;;;;;;;20.65;52.22;99732.38;3170337;28;19924;-70
2023/09/01 04:21:04;;;;;;;;;;;;;;;20.70;52.01;99736.41;3169875;28;19939;-70
2023/09/01 04:22:36;;;;;;;;;;;;;;;20.71;51.90;99732.81;3166668;28;20276;-67
2023/09/01 04:24:08;;;;;;;;;;;;;;;20.76;51.95;99735.84;3163328;28;20588;-67
2023/09/01 04:25:39;;;;;;;;;;;;;;;20.79;52.02;99731.13;3158571;28;20048;-68
2023/09/01 04:27:12;;;;;;;;;;;;;;;20.81;51.77;99738.94;3169185;28;20578;-67
2023/09/01 04:28:43;;;;;;;;;;;;;;;20.79;52.05;99730.28;3165506;28;20077;-69
2023/09/01 04:30:14;;;;;;;;;;;;;;;20.77;51.84;99737.56;3172729;28;19950;-68
2023/09/01 04:31:47;;;;;;;;;;;;;;;20.76;52.00;99735.84;3172061;28;19924;-70
2023/09/01 04:33:19;;;;;;;;;;;;;;;20.77;52.09;99732.25;3166927;28;19931;-71
2023/09/01 04:34:50;;;;;;;;;;;;;;;20.78;52.01;99734.75;3172359;28;19924;-68
2023/09/01 04:36:21;;;;;;;;;;;;;;;20.82;51.73;99736.16;3172176;28;20195;-68
2023/09/01 04:37:53;;;;;;;;;;;;;;;20.86;51.82;99739.38;3171945;28;19945;-69
2023/09/01 04:39:24;;;;;;;;;;;;;;;20.88;51.61;99737.41;3172592;28;20071;-73
2023/09/01 04:40:56;;;;;;;;;;;;;;;20.90;51.62;99744.25;3170587;28;20337;-71
2023/09/01 04:42:28;;;;;;;;;;;;;;;20.94;51.53;99742.19;3171644;28;19923;-73
2023/09/01 04:43:59;;;;;;;;;;;;;;;20.98;51.48;99745.38;3163655;28;19935;-72
2023/09/01 04:45:31;;;;;;;;;;;;;;;21.01;51.31;99743.28;3169873;28;19927;-72
2023/09/01 04:47:03;;;;;;;;;;;;;;;21.04;51.39;99742.19;3169496;28;19928;-69
2023/09/01 04:48:35;;;;;;;;;;;;;;;21.05;51.29;99742.03;3159334;28;20447;-69
2023/09/01 04:50:06;;;;;;;;;;;;;;;21.08;51.35;99741.75;3159507;28;19927;-68
2023/09/01 04:51:38;;;;;;;;;;;;;;;21.11;51.29;99738.81;3171968;28;19924;-69
2023/09/01 04:53:09;;;;;;;;;;;;;;;21.16;51.00;99745.53;3172279;28;19928;-73
2023/09/01 04:54:40;;;;;;;;;;;;;;;21.18;51.15;99740.91;3168821;28;20061;-76
2023/09/01 04:56:11;;;;;;;;;;;;;;;21.19;51.04;99743.44;3165116;28;19986;-74
2023/09/01 04:57:44;;;;;;;;;;;;;;;21.21;50.99;99741.50;3167850;28;19939;-80
2023/09/01 04:59:15;;;;;;;;;;;;;;;21.25;51.16;99745.53;3160573;28;19963;-78
2023/09/01 05:00:47;;;;;;;;;;;;;;;21.30;50.93;99747.78;3154839;28;20031;-82
2023/09/01 05:02:17;;;;;;;;;;;;;;;21.33;50.95;99750.97;3160608;28;20314;-79
2023/09/01 05:03:49;;;;;;;;;;;;;;;21.36;51.00;99747.25;3170496;28;19927;-77
2023/09/01 05:05:20;;;;;;;;;;;;;;;21.34;51.18;99744.69;3170684;28;19927;-72
2023/09/01 05:06:51;;;;;;;;;;;;;;;21.32;51.47;99745.81;3171434;28;20159;-71
2023/09/01 05:08:22;;;;;;;;;;;;;;;21.32;51.21;99744.00;3172218;28;19923;-71
2023/09/01 05:09:55;;;;;;;;;;;;;;;21.35;51.03;99742.88;3171793;28;19996;-74
2023/09/01 05:11:26;;;;;;;;;;;;;;;21.39;51.10;99738.19;3166169;28;19924;-72
2023/09/01 05:12:58;;;;;;;;;;;;;;;21.40;51.04;99746.00;3159267;28;19924;-71
2023/09/01 05:14:30;;;;;;;;;;;;;;;21.43;51.06;99735.09;3158452;28;20404;-74
2023/09/01 05:16:03;;;;;;;;;;;;;;;21.47;50.91;99733.00;3169242;28;19975;-71
2023/09/01 05:17:33;;;;;;;;;;;;;;;21.51;50.99;99743.19;3166752;28;19928;-74
2023/09/01 05:19:05;;;;;;;;;;;;;;;21.56;50.93;99737.47;3161319;28;19951;-70
2023/09/01 05:20:35;;;;;;;;;;;;;;;21.60;50.95;99746.00;3169380;28;19977;-72
2023/09/01 05:22:07;;;;;;;;;;;;;;;21.65;50.86;99746.38;3171993;28;20384;-69
2023/09/01 05:23:38;;;;;;;;;;;;;;;21.68;50.85;99746.09;3171497;27;20004;-73
2023/09/01 05:25:10;;;;;;;;;;;;;;;21.72;50.53;99742.19;3164038;28;20014;-74
2023/09/01 05:26:42;;;;;;;;;;;;;;;21.77;50.74;99742.63;3161173;28;19977;-74
2023/09/01 05:28:15;;;;;;;;;;;;;;;21.81;50.49;99744.00;3169969;28;19927;-73
2023/09/01 05:29:47;;;;;;;;;;;;;;;21.86;50.42;99748.84;3164697;28;19928;-75
2023/09/01 05:31:18;;;;;;;;;;;;;;;21.90;50.34;99744.94;3162739;28;19935;-75
2023/09/01 05:32:49;;;;;;;;;;;;;;;21.95;50.23;99745.38;3162111;28;19931;-75
2023/09/01 05:34:21;;;;;;;;;;;;;;;22.02;50.21;99749.09;3171566;28;20093;-76
2023/09/01 05:35:51;;;;;;;;;;;;;;;22.10;50.11;99749.22;3171663;28;19928;-76
2023/09/01 05:37:23;;;;;;;;;;;;;;;22.21;50.17;99749.09;3171926;28;19930;-72
2023/09/01 05:38:54;;;;;;;;;;;;;;;22.34;50.05;99751.41;3172162;28;19928;-74
2023/09/01 05:40:25;;;;;;;;;;;;;;;22.50;49.73;99761.38;3161703;28;19967;-74
2023/09/01 05:41:56;;;;;;;;;;;;;;;22.64;49.83;99752.09;3160192;28;19951;-76
2023/09/01 05:43:30;;;;;;;;;;;;;;;22.79;49.40;99750.59;3166235;28;19977;-73
2023/09/01 05:45:01;;;;;;;;;;;;;;;22.98;49.23;99752.31;3167708;28;19967;-77
2023/09/01 05:46:33;;;;;;;;;;;;;;;23.16;48.95;99757.69;3168459;28;19924;-76
2023/09/01 05:48:05;;;;;;;;;;;;;;;23.34;48.81;99761.16;3170992;28;19927;-74
2023/09/01 05:49:36;;;;;;;;;;;;;;;23.50;48.40;99759.63;3166271;28;19924;-73
2023/09/01 05:51:08;;;;;;;;;;;;;;;23.67;48.40;99766.75;3164182;27;19931;-72
2023/09/01 05:52:38;;;;;;;;;;;;;;;23.81;47.95;99760.91;3166405;28;19928;-74
2023/09/01 05:54:10;;;;;;;;;;;;;;;23.97;47.89;99764.66;3167179;28;19930;-72
2023/09/01 05:55:41;;;;;;;;;;;;;;;24.15;47.47;99770.75;3164515;28;19946;-76
2023/09/01 05:57:12;;;;;;;;;;;;;;;24.30;47.20;99766.50;3163653;28;19934;-73
2023/09/01 05:58:44;;;;;;;;;;;;;;;24.43;46.79;99766.13;3170139;28;20431;-74
2023/09/01 06:00:16;;;;;;;;;;;;;;;24.59;46.54;99769.84;3166509;28;19928;-71
2023/09/01 06:01:47;;;;;;;;;;;;;;;24.71;46.24;99765.91;3147325;28;19947;-73
2023/09/01 06:03:18;;;;;;;;;;;;;;;24.81;45.99;99768.41;3171121;28;20852;-74
2023/09/01 06:04:49;;;;;;;;;;;;;;;24.91;46.01;99769.97;3163980;28;19967;-72
2023/09/01 06:06:21;;;;;;;;;;;;;;;25.04;45.83;99773.97;3170316;28;20025;-74
2023/09/01 06:07:52;;;;;;;;;;;;;;;25.13;45.35;99768.53;3171325;28;19945;-69
2023/09/01 06:09:23;;;;;;;;;;;;;;;25.13;44.85;99765.88;3169548;28;19935;-68
2023/09/01 06:11:02;;;;;;;;;;;;;;;25.18;44.85;99760.88;3166099;28;19973;-68
2023/09/01 06:12:34;;;;;;;;;;;;;;;25.22;44.49;99768.53;3167414;28;19928;-67
2023/09/01 06:14:06;;;;;;;;;;;;;;;25.30;44.25;99772.06;3167018;28;20324;-70
2023/09/01 06:15:37;;;;;;;;;;;;;;;25.43;44.56;99771.56;3158979;28;19924;-69
2023/09/01 06:17:09;;;;;;;;;;;;;;;25.54;44.38;99768.56;3164983;28;19938;-68
2023/09/01 06:18:47;;;;;;;;;;;;;;;25.60;43.75;99773.22;3170974;28;20504;-70
2023/09/01 06:20:18;;;;;;;;;;;;;;;25.70;43.51;99769.56;3171119;28;19996;-69
2023/09/01 06:21:55;;;;;;;;;;;;;;;25.76;43.41;99782.22;3171014;28;19966;-68
2023/09/01 06:23:26;;;;;;;;;;;;;;;25.85;43.28;99771.44;3171179;28;19988;-69
2023/09/01 06:25:01;;;;;;;;;;;;;;;25.90;43.14;99780.75;3171145;28;19924;-68
2023/09/01 06:26:38;;;;;;;;;;;;;;;25.90;43.00;99778.91;3166783;28;19924;-70
2023/09/01 06:28:11;;;;;;;;;;;;;;;25.92;42.56;99782.25;3171106;28;20007;-69
2023/09/01 06:29:44;;;;;;;;;;;;;;;25.97;42.66;99779.91;3162707;28;19924;-69
2023/09/01 06:31:16;;;;;;;;;;;;;;;26.00;42.09;99784.91;3160316;28;19993;-69
2023/09/01 06:32:48;;;;;;;;;;;;;;;26.03;42.29;99784.56;3159885;28;19979;-68
2023/09/01 06:34:19;;;;;;;;;;;;;;;26.03;41.73;99783.72;3170651;28;19927;-66
2023/09/01 06:35:51;;;;;;;;;;;;;;;26.09;41.98;99783.91;3167547;28;19932;-69
2023/09/01 06:37:21;;;;;;;;;;;;;;;26.13;41.49;99781.72;3167751;28;20387;-69
2023/09/01 06:38:53;;;;;;;;;;;;;;;26.14;41.43;99790.53;3170525;28;19928;-68
2023/09/01 06:40:24;;;;;;;;;;;;;;;26.13;41.59;99789.72;3169083;28;20404;-68
2023/09/01 06:42:07;;;;;;;;;;;;;;;26.20;41.56;99784.53;3167101;28;19927;-70
2023/09/01 06:44:00;;;;;;;;;;;;;;;26.33;41.40;99793.69;3170463;28;20521;-69
2023/09/01 06:47:37;;;;;;;;;;;;;;;;;;;;;
2023/09/01 06:49:23;;;;;;;;;;;;;;;26.51;41.11;99790.81;3170677;28;19930;-70
2023/09/01 06:50:58;;;;;;;;;;;;;;;26.52;41.05;99789.78;3156682;28;20458;-71
2023/09/01 06:52:33;;;;;;;;;;;;;;;26.53;41.03;99802.16;3170306;28;19983;-71
2023/09/01 06:54:15;;;;;;;;;;;;;;;26.53;41.05;99799.50;3170547;28;19923;-72
2023/09/01 06:55:49;;;;;;;;;;;;;;;26.54;40.87;99803.00;3146174;28;20479;-70
2023/09/01 06:57:21;;;;;;;;;;;;;;;26.55;40.53;99804.66;3157354;28;19984;-73
2023/09/01 06:58:52;;;;;;;;;;;;;;;26.58;40.59;99804.31;3166714;28;19956;-70
2023/09/01 07:00:23;;;;;;;;;;;;;;;26.62;40.50;99794.97;3164656;28;19924;-72
2023/09/01 07:01:56;;;;;;;;;;;;;;;26.64;40.82;99797.44;3164461;28;20465;-70
2023/09/01 07:03:27;;;;;;;;;;;;;;;26.69;40.81;99803.09;3169851;28;19963;-70
2023/09/01 07:04:58;;;;;;;;;;;;;;;26.77;40.31;99803.06;3169823;28;21628;-70
2023/09/01 07:06:30;;;;;;;;;;;;;;;26.84;40.61;99803.19;3164411;28;20009;-73
2023/09/01 07:08:00;;;;;;;;;;;;;;;26.91;40.63;99802.31;3167122;28;20002;-71
2023/09/01 07:09:32;;;;;;;;;;;;;;;27.03;40.34;99802.75;3170215;28;19935;-71
2023/09/01 07:11:03;;;;;;;;;;;;;;;27.19;40.19;99799.19;3168028;28;19923;-74
2023/09/01 07:12:35;;;;;;;;;;;;;;;27.38;39.95;99805.91;3170384;28;19930;-70
2023/09/01 07:14:05;;;;;;;;;;;;;;;27.55;39.89;99801.28;3158173;28;19934;-69
2023/09/01 07:15:37;;;;;;;;;;;;;;;27.75;39.88;99805.13;3166568;28;19924;-71
2023/09/01 07:17:11;;;;;;;;;;;;;;;28.03;39.71;99807.25;3170375;28;20396;-72
2023/09/01 07:18:42;;;;;;;;;;;;;;;28.26;39.13;99799.16;3170370;28;19927;-73
2023/09/01 07:20:13;;;;;;;;;;;;;;;28.47;39.20;99801.13;3170429;28;19972;-73
2023/09/01 07:21:44;;;;;;;;;;;;;;;28.76;38.70;99805.63;3170464;28;19931;-71
2023/09/01 07:23:15;;;;;;;;;;;;;;;29.00;38.87;99807.97;3169994;28;19935;-71
2023/09/01 07:24:47;;;;;;;;;;;;;;;29.20;38.35;99808.25;3169954;28;19927;-72
2023/09/01 07:26:17;;;;;;;;;;;;;;;29.36;37.98;99814.38;3169069;28;19923;-74
2023/09/01 07:27:49;;;;;;;;;;;;;;;29.40;37.49;99808.44;3170344;28;19924;-72
2023/09/01 07:29:20;;;;;;;;;;;;;;;29.52;37.45;99808.78;3163561;28;19931;-73
2023/09/01 07:30:53;;;;;;;;;;;;;;;29.72;36.91;99808.13;3167581;28;20520;-70
2023/09/01 07:32:25;;;;;;;;;;;;;;;29.89;36.98;99804.97;3164491;28;19924;-68
2023/09/01 07:33:57;;;;;;;;;;;;;;;30.11;36.77;99816.50;3157951;28;19934;-68
2023/09/01 07:35:27;;;;;;;;;;;;;;;30.25;36.26;99811.25;3160439;28;19930;-67
2023/09/01 07:36:59;;;;;;;;;;;;;;;30.32;36.12;99815.66;3161213;28;20393;-68
2023/09/01 07:38:30;;;;;;;;;;;;;;;30.25;35.79;99817.44;3161294;28;19989;-68
2023/09/01 07:40:03;;;;;;;;;;;;;;;30.26;35.47;99818.28;3163960;28;20022;-73
2023/09/01 07:41:35;;;;;;;;;;;;;;;30.45;35.67;99811.38;3167604;28;20297;-73
2023/09/01 07:43:06;;;;;;;;;;;;;;;30.75;35.41;99807.38;3165910;28;19928;-73
2023/09/01 07:44:37;;;;;;;;;;;;;;;30.99;34.93;99814.13;3159715;28;20036;-73
2023/09/01 07:46:09;;;;;;;;;;;;;;;31.28;34.73;99812.97;3170817;28;20302;-69
2023/09/01 07:47:42;;;;;;;;;;;;;;;31.56;34.18;99809.31;3169813;28;19977;-71
2023/09/01 07:49:14;;;;;;;;;;;;;;;31.69;33.55;99806.63;3170231;28;20676;-70
2023/09/01 07:50:46;;;;;;;;;;;;;;;31.92;33.62;99803.56;3170055;28;19977;-66
2023/09/01 07:52:16;;;;;;;;;;;;;;;32.04;32.87;99803.75;3170393;28;20328;-76
2023/09/01 07:53:48;;;;;;;;;;;;;;;32.19;32.91;99808.91;3170001;28;19924;-72
2023/09/01 07:55:19;;;;;;;;;;;;;;;32.37;32.72;99803.69;3165525;28;19931;-73
2023/09/01 07:56:50;;;;;;;;;;;;;;;32.46;32.02;99806.19;3161160;28;19932;-72
2023/09/01 07:58:21;;;;;;;;;;;;;;;32.53;32.26;99804.28;3165181;28;20018;-70
2023/09/01 07:59:53;;;;;;;;;;;;;;;32.69;32.03;99801.13;3166429;28;19934;-66
2023/09/01 08:01:23;;;;;;;;;;;;;;;32.74;31.43;99805.84;3162624;28;20004;-66